createdAt,value
2022-12-07T00:00:42.588Z,98.35
2022-12-07T00:03:31.277Z,96.70
2022-12-07T00:06:22.616Z,98.05
2022-12-07T00:09:12.572Z,100.10
2022-12-07T00:11:59.258Z,96.65
2022-12-07T00:14:47.544Z,100.60
2022-12-07T00:17:29.144Z,96.05
2022-12-07T00:20:19.557Z,98.82
2022-12-07T00:23:01.288Z,97.72
2022-12-07T00:25:43.462Z,95.35
2022-12-07T00:28:32.661Z,97.65
2022-12-07T00:31:16.055Z,95.75
2022-12-07T00:34:06.279Z,95.28
2022-12-07T00:36:55.565Z,97.75
2022-12-07T00:39:37.258Z,97.85
2022-12-07T00:42:26.224Z,102.32
2022-12-07T00:45:15.199Z,100.35
2022-12-07T00:48:04.378Z,99.28
2022-12-07T00:50:46.587Z,100.30
2022-12-07T00:53:41.060Z,97.97
2022-12-07T00:56:31.690Z,101.85
2022-12-07T00:59:25.187Z,98.15
2022-12-07T01:02:07.506Z,100.22
2022-12-07T01:04:56.192Z,99.53
2022-12-07T01:07:38.599Z,100.55
2022-12-07T01:10:27.235Z,99.00
2022-12-07T01:13:09.504Z,95.50
2022-12-07T01:15:58.145Z,100.43
2022-12-07T01:18:43.657Z,99.60
2022-12-07T01:21:37.225Z,101.15
2022-12-07T01:24:20.541Z,103.15
2022-12-07T01:27:09.194Z,105.93
2022-12-07T01:29:58.497Z,104.97
2022-12-07T01:32:47.278Z,105.85
2022-12-07T01:35:29.655Z,107.68
2022-12-07T01:38:19.177Z,108.75
2022-12-07T01:41:12.399Z,107.57
2022-12-07T01:44:17.786Z,111.10
2022-12-07T01:47:11.117Z,108.88
2022-12-07T01:49:53.435Z,108.95
2022-12-07T01:52:47.167Z,112.07
2022-12-07T01:55:43.238Z,109.75
2022-12-07T01:58:33.120Z,110.07
2022-12-07T02:01:22.291Z,108.47
2022-12-07T02:04:11.530Z,107.30
2022-12-07T02:06:55.131Z,109.32
2022-12-07T02:09:37.471Z,107.97
2022-12-07T02:12:26.122Z,108.07
2022-12-07T02:15:15.562Z,107.70
2022-12-07T02:18:42.227Z,111.43
2022-12-07T02:22:07.539Z,107.78
2022-12-07T02:27:59.100Z,111.32
2022-12-07T02:30:55.229Z,111.00
2022-12-07T02:33:45.535Z,113.35
2022-12-07T02:36:42.145Z,118.20
2022-12-07T02:39:31.601Z,115.13
2022-12-07T02:42:34.224Z,118.43
2022-12-07T02:45:19.528Z,113.22
2022-12-07T02:48:10.275Z,110.55
2022-12-07T02:51:00.535Z,111.63
2022-12-07T02:53:51.192Z,110.53
2022-12-07T02:56:54.601Z,106.75
2022-12-07T02:59:46.150Z,107.40
2022-12-07T03:02:34.605Z,103.75
2022-12-07T03:06:21.102Z,108.53
2022-12-07T03:09:23.163Z,110.85
2022-12-07T03:12:20.822Z,114.63
2022-12-07T03:15:38.311Z,110.45
2022-12-07T03:18:25.152Z,111.45
2022-12-07T03:21:19.267Z,113.43
2022-12-07T03:24:06.000Z,109.32
2022-12-07T03:27:00.225Z,108.40
2022-12-07T03:29:59.231Z,98.60
2022-12-07T03:33:06.218Z,94.72
2022-12-07T03:36:12.247Z,95.20
2022-12-07T03:39:12.507Z,92.60
2022-12-07T03:42:02.525Z,81.75
2022-12-07T03:44:52.194Z,76.00
2022-12-07T03:48:08.367Z,72.85
2022-12-07T03:51:09.601Z,70.10
2022-12-07T03:54:09.278Z,68.68
2022-12-07T03:56:53.483Z,64.97
2022-12-07T03:59:43.218Z,70.03
2022-12-07T04:02:32.304Z,67.45
2022-12-07T04:05:14.730Z,69.22
2022-12-07T04:08:03.260Z,69.28
2022-12-07T04:10:45.468Z,61.25
2022-12-07T04:13:34.221Z,60.03
2022-12-07T04:16:16.446Z,55.72
2022-12-07T04:19:05.187Z,56.17
2022-12-07T04:21:48.313Z,56.75
2022-12-07T04:24:38.203Z,57.50
2022-12-07T04:27:27.266Z,58.13
2022-12-07T04:30:09.537Z,57.47
2022-12-07T04:32:58.188Z,56.72
2022-12-07T04:35:47.100Z,55.08
2022-12-07T04:38:42.235Z,55.35
2022-12-07T04:41:32.515Z,52.53
2022-12-07T04:44:16.116Z,54.70
2022-12-07T04:47:06.289Z,54.42
2022-12-07T04:49:55.161Z,54.30
2022-12-07T04:52:44.219Z,54.08
2022-12-07T04:55:33.232Z,54.55
2022-12-07T04:58:16.156Z,53.00
2022-12-07T05:01:05.232Z,54.92
2022-12-07T05:03:47.653Z,54.88
2022-12-07T05:06:37.319Z,59.15
2022-12-07T05:09:26.541Z,59.22
2022-12-07T05:12:08.242Z,58.58
2022-12-07T05:14:56.498Z,59.75
2022-12-07T05:17:38.326Z,58.80
2022-12-07T05:20:26.498Z,59.35
2022-12-07T05:23:09.195Z,55.03
2022-12-07T05:25:57.600Z,53.38
2022-12-07T05:28:46.258Z,52.03
2022-12-07T05:31:36.285Z,48.08
2022-12-07T05:34:18.596Z,48.05
2022-12-07T05:37:07.163Z,49.05
2022-12-07T05:39:55.540Z,51.42
2022-12-07T05:42:37.541Z,54.53
2022-12-07T05:45:26.538Z,52.30
2022-12-07T05:48:09.186Z,52.08
2022-12-07T05:50:52.790Z,51.85
2022-12-07T05:53:41.178Z,47.80
2022-12-07T05:56:30.525Z,44.13
2022-12-07T05:59:31.150Z,41.08
2022-12-07T06:02:16.571Z,39.08
2022-12-07T06:05:05.266Z,40.10
2022-12-07T06:07:53.584Z,46.40
2022-12-07T06:10:35.211Z,50.85
2022-12-07T06:13:23.484Z,52.40
2022-12-07T06:16:05.280Z,50.35
2022-12-07T06:18:53.517Z,51.40
2022-12-07T06:21:36.120Z,52.13
2022-12-07T06:24:20.087Z,54.17
2022-12-07T06:27:09.192Z,52.72
2022-12-07T06:29:51.395Z,48.38
2022-12-07T06:32:40.101Z,45.20
2022-12-07T06:35:29.253Z,36.83
2022-12-07T06:38:18.191Z,42.60
2022-12-07T06:41:00.383Z,42.35
2022-12-07T06:43:54.202Z,42.17
2022-12-07T06:46:40.326Z,39.13
2022-12-07T06:49:29.310Z,37.28
2022-12-07T06:52:11.414Z,37.85
2022-12-07T06:55:00.207Z,37.35
2022-12-07T06:57:42.395Z,40.67
2022-12-07T07:00:31.146Z,48.67
2022-12-07T07:03:20.239Z,47.65
2022-12-07T07:06:02.448Z,46.85
2022-12-07T07:08:51.333Z,45.78
2022-12-07T07:11:33.513Z,43.60
2022-12-07T07:14:25.203Z,43.30
2022-12-07T07:17:07.652Z,44.75
2022-12-07T07:19:56.091Z,46.17
2022-12-07T07:22:38.525Z,44.60
2022-12-07T07:25:27.134Z,43.92
2022-12-07T07:28:22.559Z,42.08
2022-12-07T07:31:11.261Z,44.58
2022-12-07T07:34:02.259Z,43.42
2022-12-07T07:36:51.527Z,43.97
2022-12-07T07:39:33.268Z,44.60
2022-12-07T07:42:23.682Z,45.80
2022-12-07T07:45:06.251Z,45.97
2022-12-07T07:47:54.527Z,47.85
2022-12-07T07:50:37.194Z,48.85
2022-12-07T07:53:19.389Z,45.28
2022-12-07T07:56:10.299Z,46.35
2022-12-07T07:59:01.512Z,45.53
2022-12-07T08:01:44.218Z,44.00
2022-12-07T08:07:16.292Z,44.63
2022-12-07T08:10:04.830Z,44.50
2022-12-07T08:13:08.211Z,44.80
2022-12-07T08:15:50.956Z,44.05
2022-12-07T08:18:40.141Z,46.08
2022-12-07T08:21:29.117Z,46.55
2022-12-07T08:24:11.552Z,46.30
2022-12-07T08:27:00.179Z,44.97
2022-12-07T08:29:48.514Z,47.60
2022-12-07T08:32:31.156Z,46.08
2022-12-07T08:35:13.442Z,47.92
2022-12-07T08:38:02.215Z,47.70
2022-12-07T08:40:50.532Z,50.03
2022-12-07T08:43:33.186Z,48.25
2022-12-07T08:46:32.606Z,48.92
2022-12-07T08:49:19.234Z,47.30
2022-12-07T08:52:07.702Z,47.85
2022-12-07T08:54:51.229Z,48.88
2022-12-07T08:57:44.771Z,48.40
2022-12-07T09:00:27.319Z,50.03
2022-12-07T09:03:15.487Z,49.80
2022-12-07T09:05:58.333Z,48.67
2022-12-07T09:09:01.264Z,48.25
2022-12-07T09:11:50.545Z,45.10
2022-12-07T09:14:33.159Z,45.33
2022-12-07T09:17:23.239Z,44.37
2022-12-07T09:20:05.910Z,44.78
2022-12-07T09:22:55.144Z,41.90
2022-12-07T09:25:44.230Z,38.90
2022-12-07T09:28:33.210Z,32.60
2022-12-07T09:31:23.405Z,30.67
2022-12-07T09:34:14.217Z,27.15
2022-12-07T09:36:56.475Z,26.65
2022-12-07T09:39:50.376Z,23.40
2022-12-07T09:42:53.314Z,22.50
2022-12-07T09:45:48.690Z,22.80
2022-12-07T09:48:39.081Z,22.50
2022-12-07T09:51:26.605Z,22.30
2022-12-07T09:54:16.158Z,21.70
2022-12-07T09:56:58.499Z,22.17
2022-12-07T09:59:47.134Z,22.20
2022-12-07T10:02:48.451Z,21.55
2022-12-07T10:05:44.211Z,20.55
2022-12-07T10:08:34.221Z,20.63
2022-12-07T10:11:18.081Z,21.27
2022-12-07T10:14:38.147Z,22.25
2022-12-07T10:17:49.523Z,21.52
2022-12-07T10:20:38.123Z,21.65
2022-12-07T10:23:27.456Z,21.73
2022-12-07T10:26:48.212Z,20.85
2022-12-07T10:29:47.525Z,19.98
2022-12-07T10:32:29.217Z,21.65
2022-12-07T10:35:30.420Z,22.25
2022-12-07T10:38:32.217Z,19.95
2022-12-07T10:41:21.085Z,22.23
2022-12-07T10:44:06.460Z,22.92
2022-12-07T10:47:22.296Z,23.77
2022-12-07T10:50:45.238Z,24.15
2022-12-07T10:53:51.648Z,22.67
2022-12-07T10:56:52.667Z,24.25
2022-12-07T11:00:02.855Z,22.90
2022-12-07T11:03:18.144Z,25.98
2022-12-07T11:06:30.083Z,21.63
2022-12-07T11:10:19.172Z,22.42
2022-12-07T11:13:21.544Z,22.58
2022-12-07T11:16:13.520Z,22.20
2022-12-07T11:19:27.972Z,22.30
2022-12-07T11:22:25.473Z,21.55
2022-12-07T11:25:25.702Z,20.52
2022-12-07T11:28:41.015Z,21.15
2022-12-07T11:32:07.307Z,21.85
2022-12-07T11:35:02.549Z,19.95
2022-12-07T11:37:51.295Z,22.48
2022-12-07T11:40:40.775Z,22.33
2022-12-07T11:43:41.215Z,23.23
2022-12-07T11:46:26.655Z,22.15
2022-12-07T11:49:46.167Z,24.38
2022-12-07T11:52:45.431Z,25.38
2022-12-07T11:56:01.077Z,24.73
2022-12-07T11:58:47.594Z,24.50
2022-12-07T12:01:48.203Z,25.45
2022-12-07T12:04:41.506Z,26.48
2022-12-07T12:11:34.195Z,28.63
2022-12-07T12:14:51.353Z,25.17
2022-12-07T12:17:49.219Z,26.52
2022-12-07T12:20:41.073Z,27.45
2022-12-07T12:23:35.262Z,26.98
2022-12-07T12:26:25.015Z,29.67
2022-12-07T12:29:23.108Z,26.02
2022-12-07T12:32:24.782Z,27.33
2022-12-07T12:35:43.219Z,29.77
2022-12-07T12:38:36.398Z,29.30
2022-12-07T12:41:57.072Z,29.83
2022-12-07T12:44:39.273Z,32.05
2022-12-07T12:48:06.204Z,33.53
2022-12-07T12:50:48.334Z,30.90
2022-12-07T12:53:42.331Z,32.38
2022-12-07T12:59:52.242Z,34.05
2022-12-07T13:02:50.388Z,35.83
2022-12-07T13:05:41.197Z,35.72
2022-12-07T13:08:35.436Z,36.15
2022-12-07T13:15:10.489Z,36.33
2022-12-07T13:17:52.068Z,35.50
2022-12-07T13:21:04.560Z,35.67
2022-12-07T13:24:03.203Z,37.47
2022-12-07T13:26:53.102Z,37.30
2022-12-07T13:29:53.215Z,38.65
2022-12-07T13:32:41.493Z,36.15
2022-12-07T13:35:48.150Z,36.53
2022-12-07T13:38:46.057Z,40.53
2022-12-07T13:41:38.069Z,40.85
2022-12-07T13:44:27.954Z,40.20
2022-12-07T13:47:16.161Z,41.40
2022-12-07T13:49:59.250Z,43.45
2022-12-07T13:52:48.215Z,54.08
2022-12-07T13:55:32.069Z,77.97
2022-12-07T13:58:21.212Z,71.40
2022-12-07T14:01:03.615Z,60.78
2022-12-07T14:03:52.139Z,55.15
2022-12-07T14:06:34.384Z,51.15
2022-12-07T14:09:34.110Z,51.30
2022-12-07T14:12:23.421Z,49.58
2022-12-07T14:15:07.143Z,51.92
2022-12-07T14:18:06.476Z,54.20
2022-12-07T14:20:50.186Z,51.28
2022-12-07T14:23:32.388Z,56.13
2022-12-07T14:26:35.205Z,54.17
2022-12-07T14:29:58.040Z,54.50
2022-12-07T14:32:47.103Z,55.08
2022-12-07T14:35:30.495Z,54.85
2022-12-07T14:38:19.084Z,55.33
2022-12-07T14:41:28.188Z,54.88
2022-12-07T14:44:23.561Z,54.08
2022-12-07T14:50:26.626Z,78.35
2022-12-07T14:56:14.627Z,101.93
2022-12-07T14:58:56.450Z,88.03
2022-12-07T15:01:45.344Z,78.07
2022-12-07T15:04:27.681Z,72.22
2022-12-07T15:07:30.176Z,67.88
2022-12-07T15:10:23.783Z,68.18
2022-12-07T15:13:31.119Z,72.53
2022-12-07T15:16:18.583Z,68.10
2022-12-07T15:19:27.285Z,62.17
2022-12-07T15:22:09.595Z,58.22
2022-12-07T15:24:58.212Z,58.38
2022-12-07T15:27:49.148Z,53.75
2022-12-07T15:30:38.827Z,54.60
2022-12-07T15:33:23.188Z,52.25
2022-12-07T15:36:12.355Z,52.92
2022-12-07T15:39:16.422Z,51.72
2022-12-07T15:45:05.669Z,47.17
2022-12-07T15:48:26.656Z,48.67
2022-12-07T15:50:57.270Z,48.10
2022-12-07T15:53:40.067Z,45.65
2022-12-07T15:56:29.239Z,48.28
2022-12-07T15:59:11.610Z,47.15
2022-12-07T16:02:00.346Z,47.58
2022-12-07T16:04:42.749Z,48.08
2022-12-07T16:07:33.169Z,46.90
2022-12-07T16:10:22.206Z,47.63
2022-12-07T16:13:11.067Z,46.42
2022-12-07T16:15:53.913Z,45.40
2022-12-07T16:18:43.685Z,46.78
2022-12-07T16:21:33.528Z,47.40
2022-12-07T16:24:24.140Z,46.55
2022-12-07T16:27:13.108Z,49.03
2022-12-07T16:30:03.178Z,50.92
2022-12-07T16:32:46.385Z,51.58
2022-12-07T16:35:28.865Z,49.97
2022-12-07T16:38:18.271Z,49.30
2022-12-07T16:41:07.979Z,48.65
2022-12-07T16:43:51.732Z,52.03
2022-12-07T16:46:43.148Z,50.75
2022-12-07T16:49:26.508Z,51.55
2022-12-07T16:52:20.268Z,50.13
2022-12-07T16:55:05.224Z,52.45
2022-12-07T16:57:54.474Z,51.15
2022-12-07T17:00:36.812Z,50.45
2022-12-07T17:03:26.597Z,53.05
2022-12-07T17:06:17.754Z,51.75
2022-12-07T17:09:16.361Z,50.92
2022-12-07T17:12:03.429Z,51.08
2022-12-07T17:17:53.024Z,52.45
2022-12-07T17:20:43.905Z,53.17
2022-12-07T17:23:27.167Z,52.10
2022-12-07T17:26:20.040Z,53.22
2022-12-07T17:29:17.178Z,56.60
2022-12-07T17:31:59.403Z,55.63
2022-12-07T17:34:48.176Z,59.78
2022-12-07T17:37:30.315Z,57.63
2022-12-07T17:40:20.127Z,59.30
2022-12-07T17:43:09.217Z,57.33
2022-12-07T17:45:51.428Z,60.58
2022-12-07T17:48:40.211Z,60.03
2022-12-07T17:51:40.718Z,63.03
2022-12-07T17:54:30.042Z,59.95
2022-12-07T17:57:12.170Z,61.55
2022-12-07T17:59:56.447Z,63.10
2022-12-07T18:02:54.113Z,64.70
2022-12-07T18:05:43.148Z,66.55
2022-12-07T18:08:32.020Z,64.57
2022-12-07T18:11:22.208Z,66.68
2022-12-07T18:14:05.302Z,66.82
2022-12-07T18:16:54.183Z,70.85
2022-12-07T18:19:45.038Z,68.43
2022-12-07T18:22:34.215Z,72.25
2022-12-07T18:25:22.398Z,75.80
2022-12-07T18:28:04.188Z,78.20
2022-12-07T18:31:14.741Z,78.68
2022-12-07T18:34:05.059Z,79.78
2022-12-07T18:36:55.110Z,79.35
2022-12-07T18:39:37.304Z,80.70
2022-12-07T18:42:26.130Z,84.90
2022-12-07T18:45:15.251Z,87.47
2022-12-07T18:47:57.589Z,94.95
2022-12-07T18:50:46.110Z,94.53
2022-12-07T18:53:28.883Z,94.82
2022-12-07T18:56:26.031Z,94.25
2022-12-07T18:59:55.124Z,95.53
2022-12-07T19:02:37.449Z,90.20
2022-12-07T19:05:26.055Z,94.07
2022-12-07T19:08:14.421Z,95.95
2022-12-07T19:10:57.177Z,94.65
2022-12-07T19:13:46.171Z,97.30
2022-12-07T19:16:28.626Z,95.65
2022-12-07T19:19:17.046Z,94.47
2022-12-07T19:22:06.108Z,96.05
2022-12-07T19:25:08.105Z,96.25
2022-12-07T19:27:56.402Z,92.82
2022-12-07T19:30:53.477Z,90.18
2022-12-07T19:33:42.419Z,88.38
2022-12-07T19:36:25.174Z,88.72
2022-12-07T19:39:12.983Z,89.68
2022-12-07T19:42:04.110Z,86.90
2022-12-07T19:44:46.417Z,85.20
2022-12-07T19:47:35.113Z,90.78
2022-12-07T19:50:17.438Z,85.97
2022-12-07T19:53:06.155Z,86.40
2022-12-07T19:55:49.054Z,83.75
2022-12-07T19:58:38.170Z,89.85
2022-12-07T20:01:20.384Z,90.68
2022-12-07T20:04:10.117Z,90.28
2022-12-07T20:06:58.370Z,90.55
2022-12-07T20:09:47.211Z,88.80
2022-12-07T20:12:54.117Z,83.55
2022-12-07T20:15:43.101Z,88.47
2022-12-07T20:18:25.337Z,87.03
2022-12-07T20:21:15.120Z,87.75
2022-12-07T20:24:04.031Z,85.88
2022-12-07T20:26:54.064Z,87.80
2022-12-07T20:29:36.497Z,87.00
2022-12-07T20:32:27.118Z,85.75
2022-12-07T20:35:09.663Z,87.70
2022-12-07T20:37:58.031Z,89.38
2022-12-07T20:40:48.104Z,89.32
2022-12-07T20:43:37.087Z,91.45
2022-12-07T20:46:25.449Z,94.28
2022-12-07T20:49:09.119Z,91.22
2022-12-07T20:51:59.099Z,91.47
2022-12-07T20:54:41.420Z,89.93
2022-12-07T20:57:30.149Z,93.68
2022-12-07T21:00:14.365Z,94.00
2022-12-07T21:03:05.193Z,94.95
2022-12-07T21:05:50.745Z,95.53
2022-12-07T21:08:40.101Z,99.43
2022-12-07T21:11:23.414Z,99.47
2022-12-07T21:14:12.130Z,95.40
2022-12-07T21:16:54.408Z,92.30
2022-12-07T21:19:43.097Z,96.05
2022-12-07T21:22:26.370Z,96.50
2022-12-07T21:25:14.995Z,97.13
2022-12-07T21:28:04.039Z,98.03
2022-12-07T21:31:14.370Z,95.80
2022-12-07T21:33:56.336Z,97.40
2022-12-07T21:36:46.004Z,97.72
2022-12-07T21:39:35.260Z,102.28
2022-12-07T21:42:17.422Z,101.57
2022-12-07T21:45:06.374Z,109.32
2022-12-07T21:47:48.415Z,113.90
2022-12-07T21:50:36.990Z,115.32
2022-12-07T21:53:19.419Z,121.70
2022-12-07T21:56:08.004Z,118.32
2022-12-07T21:58:51.412Z,115.85
2022-12-07T22:01:45.113Z,117.90
2022-12-07T22:04:30.436Z,116.60
2022-12-07T22:07:19.139Z,114.18
2022-12-07T22:10:01.400Z,111.93
2022-12-07T22:12:50.072Z,112.53
2022-12-07T22:15:34.431Z,112.13
2022-12-07T22:18:23.127Z,110.05
2022-12-07T22:21:15.152Z,113.07
2022-12-07T22:23:57.610Z,109.15
2022-12-07T22:26:47.104Z,112.60
2022-12-07T22:29:41.928Z,113.47
2022-12-07T22:35:33.357Z,112.65
2022-12-07T22:38:22.121Z,109.97
2022-12-07T22:41:06.409Z,108.85
2022-12-07T22:43:55.087Z,109.25
2022-12-07T22:46:37.500Z,109.20
2022-12-07T22:49:28.749Z,110.15
2022-12-07T22:52:17.991Z,109.90
2022-12-07T22:55:07.221Z,105.63
2022-12-07T22:57:56.180Z,103.47
2022-12-07T23:00:38.325Z,104.20
2022-12-07T23:03:28.143Z,102.85
2022-12-07T23:06:33.166Z,101.43
2022-12-07T23:09:15.378Z,102.53
2022-12-07T23:12:21.998Z,100.25
2022-12-07T23:15:06.705Z,103.18
2022-12-07T23:17:56.068Z,100.07
2022-12-07T23:20:51.119Z,101.72
2022-12-07T23:23:40.118Z,100.40
2022-12-07T23:26:22.496Z,100.68
2022-12-07T23:29:15.714Z,99.78
2022-12-07T23:32:05.507Z,98.88
2022-12-07T23:34:47.974Z,101.95
2022-12-07T23:37:30.361Z,102.37
2022-12-07T23:40:21.059Z,97.22
2022-12-07T23:43:10.048Z,99.55
2022-12-07T23:45:59.981Z,100.07
2022-12-07T23:48:49.004Z,99.15
2022-12-07T23:51:32.352Z,96.55
2022-12-07T23:54:21.116Z,97.55
2022-12-07T23:57:03.458Z,95.70
2022-12-07T23:59:52.067Z,99.10
